createdAt,value
2019-05-22T00:01:56.666Z,15.30
2019-05-22T00:04:28.652Z,15.30
2019-05-22T00:07:00.792Z,15.30
2019-05-22T00:09:42.495Z,15.20
2019-05-22T00:12:21.137Z,15.10
2019-05-22T00:14:52.779Z,15.20
2019-05-22T00:17:29.015Z,15.10
2019-05-22T00:19:59.267Z,15.10
2019-05-22T00:22:33.480Z,15.10
2019-05-22T00:25:04.963Z,15.10
2019-05-22T00:27:35.119Z,15.10
2019-05-22T00:30:06.096Z,15.10
2019-05-22T00:32:36.928Z,15.10
2019-05-22T00:35:09.071Z,15.10
2019-05-22T00:37:38.511Z,15.00
2019-05-22T00:40:09.306Z,15.10
2019-05-22T00:42:39.773Z,15.10
2019-05-22T00:45:12.665Z,15.10
2019-05-22T00:47:42.190Z,15.00
2019-05-22T00:50:14.161Z,15.00
2019-05-22T00:52:49.835Z,14.90
2019-05-22T00:55:39.955Z,14.90
2019-05-22T00:58:13.883Z,14.70
2019-05-22T01:01:04.582Z,14.70
2019-05-22T01:03:36.333Z,14.60
2019-05-22T01:06:08.848Z,14.50
2019-05-22T01:08:40.169Z,14.50
2019-05-22T01:11:10.660Z,14.50
2019-05-22T01:13:41.059Z,14.50
2019-05-22T01:16:13.620Z,14.40
2019-05-22T01:18:43.810Z,14.40
2019-05-22T01:21:15.004Z,14.50
2019-05-22T01:23:43.973Z,14.40
2019-05-22T01:26:18.867Z,14.50
2019-05-22T01:28:48.431Z,14.40
2019-05-22T01:31:31.132Z,14.30
2019-05-22T01:34:05.469Z,14.40
2019-05-22T01:36:36.307Z,14.40
2019-05-22T01:39:22.255Z,14.40
2019-05-22T01:41:54.211Z,14.40
2019-05-22T01:44:24.658Z,14.40
2019-05-22T01:46:56.547Z,14.30
2019-05-22T01:49:26.837Z,14.40
2019-05-22T01:51:56.392Z,14.40
2019-05-22T01:54:25.619Z,14.40
2019-05-22T01:57:04.105Z,14.30
2019-05-22T01:59:36.710Z,14.30
2019-05-22T02:02:09.360Z,14.40
2019-05-22T02:04:38.566Z,14.40
2019-05-22T02:07:09.380Z,14.40
2019-05-22T02:09:41.211Z,14.30
2019-05-22T02:12:25.488Z,14.40
2019-05-22T02:14:56.036Z,14.40
2019-05-22T02:17:31.645Z,14.40
2019-05-22T02:20:00.694Z,14.40
2019-05-22T02:22:30.598Z,14.30
2019-05-22T02:24:59.765Z,14.30
2019-05-22T02:27:30.041Z,14.20
2019-05-22T02:29:59.225Z,14.30
2019-05-22T02:32:29.236Z,14.30
2019-05-22T02:34:58.053Z,14.20
2019-05-22T02:37:28.614Z,14.20
2019-05-22T02:39:57.560Z,14.20
2019-05-22T02:42:29.757Z,14.10
2019-05-22T02:44:59.883Z,14.20
2019-05-22T02:47:31.501Z,14.10
2019-05-22T02:50:01.518Z,14.20
2019-05-22T02:52:30.646Z,14.10
2019-05-22T02:54:59.690Z,14.10
2019-05-22T02:57:30.427Z,14.10
2019-05-22T03:00:00.675Z,14.10
2019-05-22T03:02:32.352Z,14.10
2019-05-22T03:05:07.026Z,14.10
2019-05-22T03:07:36.676Z,14.10
2019-05-22T03:10:08.011Z,14.10
2019-05-22T03:12:38.522Z,14.10
2019-05-22T03:15:10.880Z,14.00
2019-05-22T03:17:41.821Z,14.00
2019-05-22T03:20:13.811Z,14.00
2019-05-22T03:22:50.446Z,13.90
2019-05-22T03:25:20.240Z,13.90
2019-05-22T03:27:52.066Z,13.90
2019-05-22T03:30:26.417Z,13.90
2019-05-22T03:32:56.144Z,13.90
2019-05-22T03:35:46.908Z,13.80
2019-05-22T03:38:18.023Z,13.90
2019-05-22T03:40:47.993Z,13.80
2019-05-22T03:43:25.258Z,13.80
2019-05-22T03:45:56.057Z,13.80
2019-05-22T03:48:26.562Z,13.80
2019-05-22T03:51:00.715Z,13.80
2019-05-22T03:53:30.470Z,13.80
2019-05-22T03:55:59.573Z,13.70
2019-05-22T03:58:28.800Z,13.70
2019-05-22T04:00:58.820Z,13.80
2019-05-22T04:03:28.089Z,13.70
2019-05-22T04:05:57.358Z,13.70
2019-05-22T04:08:27.426Z,13.70
2019-05-22T04:10:59.016Z,13.60
2019-05-22T04:13:28.829Z,13.60
2019-05-22T04:15:58.596Z,13.60
2019-05-22T04:18:28.080Z,13.60
2019-05-22T04:20:58.900Z,13.60
2019-05-22T04:23:28.193Z,13.60
2019-05-22T04:25:59.033Z,13.60
2019-05-22T04:28:28.894Z,13.50
2019-05-22T04:30:59.960Z,13.50
2019-05-22T04:33:30.223Z,13.40
2019-05-22T04:36:00.504Z,13.50
2019-05-22T04:38:30.015Z,13.50
2019-05-22T04:41:01.816Z,13.50
2019-05-22T04:43:33.929Z,13.50
2019-05-22T04:46:05.292Z,13.50
2019-05-22T04:48:36.382Z,13.40
2019-05-22T04:51:23.982Z,13.40
2019-05-22T04:53:53.427Z,13.40
2019-05-22T04:56:23.481Z,13.40
2019-05-22T04:58:53.148Z,13.40
2019-05-22T05:01:22.234Z,13.40
2019-05-22T05:03:51.972Z,13.40
2019-05-22T05:06:23.833Z,13.40
2019-05-22T05:08:52.880Z,13.50
2019-05-22T05:11:21.883Z,13.40
2019-05-22T05:13:50.833Z,13.40
2019-05-22T05:16:19.743Z,13.40
2019-05-22T05:18:48.586Z,13.30
2019-05-22T05:21:17.634Z,13.30
2019-05-22T05:23:47.251Z,13.30
2019-05-22T05:26:16.578Z,13.30
2019-05-22T05:28:46.165Z,13.20
2019-05-22T05:31:15.911Z,13.30
2019-05-22T05:34:10.216Z,13.20
2019-05-22T05:36:39.753Z,13.20
2019-05-22T05:39:25.298Z,13.20
2019-05-22T05:41:54.079Z,13.20
2019-05-22T05:44:23.525Z,13.20
2019-05-22T05:46:52.346Z,13.30
2019-05-22T05:49:21.379Z,13.30
2019-05-22T05:51:50.562Z,13.20
2019-05-22T05:54:23.251Z,13.20
2019-05-22T05:56:52.396Z,13.20
2019-05-22T05:59:22.575Z,13.10
2019-05-22T06:01:54.172Z,13.00
2019-05-22T06:04:35.052Z,13.00
2019-05-22T06:07:21.721Z,13.00
2019-05-22T06:10:23.775Z,13.00
2019-05-22T06:12:52.772Z,13.00
2019-05-22T06:15:25.352Z,13.00
2019-05-22T06:18:34.308Z,12.90
2019-05-22T06:21:04.926Z,13.00
2019-05-22T06:24:31.712Z,13.00
2019-05-22T06:27:18.695Z,12.90
2019-05-22T06:29:57.104Z,12.90
2019-05-22T06:33:02.619Z,12.90
2019-05-22T06:35:36.081Z,12.90
2019-05-22T06:38:16.343Z,12.80
2019-05-22T06:40:46.107Z,12.80
2019-05-22T06:44:01.256Z,12.80
2019-05-22T06:46:46.604Z,12.80
2019-05-22T06:49:38.070Z,12.70
2019-05-22T06:52:08.442Z,12.70
2019-05-22T06:54:37.707Z,12.80
2019-05-22T06:57:24.681Z,12.80
2019-05-22T07:00:12.413Z,12.80
2019-05-22T07:02:26.976Z,12.70
2019-05-22T07:04:55.828Z,12.70
2019-05-22T07:07:28.883Z,12.70
2019-05-22T07:09:57.824Z,12.60
2019-05-22T07:12:26.913Z,12.50
2019-05-22T07:15:39.718Z,12.60
2019-05-22T07:18:12.771Z,12.60
2019-05-22T07:20:41.980Z,12.50
2019-05-22T07:23:16.765Z,12.50
2019-05-22T07:25:47.424Z,12.50
2019-05-22T07:28:19.309Z,12.50
2019-05-22T07:30:49.243Z,12.50
2019-05-22T07:33:19.678Z,12.50
2019-05-22T07:36:07.930Z,12.40
2019-05-22T07:38:20.907Z,12.50
2019-05-22T07:40:51.739Z,12.40
2019-05-22T07:43:21.583Z,12.40
2019-05-22T07:45:51.584Z,12.40
2019-05-22T07:48:23.072Z,12.40
2019-05-22T07:50:54.038Z,12.40
2019-05-22T07:53:25.299Z,12.40
2019-05-22T07:55:55.169Z,12.40
2019-05-22T07:58:25.610Z,12.40
2019-05-22T08:00:56.541Z,12.50
2019-05-22T08:03:26.008Z,12.40
2019-05-22T08:05:56.677Z,12.50
2019-05-22T08:08:26.567Z,12.50
2019-05-22T08:10:57.113Z,12.50
2019-05-22T08:13:27.635Z,12.40
2019-05-22T08:15:57.358Z,12.40
2019-05-22T08:18:26.975Z,12.40
2019-05-22T08:20:56.215Z,12.40
2019-05-22T08:23:26.942Z,12.40
2019-05-22T08:25:57.651Z,12.30
2019-05-22T08:28:27.635Z,12.30
2019-05-22T08:30:56.588Z,12.20
2019-05-22T08:33:25.639Z,12.30
2019-05-22T08:35:55.113Z,12.20
2019-05-22T08:38:28.631Z,12.20
2019-05-22T08:40:59.591Z,12.20
2019-05-22T08:43:30.005Z,12.30
2019-05-22T08:45:59.360Z,12.30
2019-05-22T08:48:28.817Z,12.30
2019-05-22T08:50:58.595Z,12.20
2019-05-22T08:53:28.510Z,12.30
2019-05-22T08:55:58.793Z,12.30
2019-05-22T08:58:27.804Z,12.30
2019-05-22T09:00:57.100Z,12.30
2019-05-22T09:03:25.907Z,12.20
2019-05-22T09:05:54.815Z,12.20
2019-05-22T09:08:24.046Z,12.20
2019-05-22T09:10:53.048Z,12.10
2019-05-22T09:13:22.318Z,12.10
2019-05-22T09:15:52.086Z,12.00
2019-05-22T09:18:21.105Z,12.00
2019-05-22T09:20:50.168Z,12.00
2019-05-22T09:23:19.311Z,12.10
2019-05-22T09:25:48.628Z,12.10
2019-05-22T09:28:17.945Z,12.00
2019-05-22T09:30:46.871Z,12.00
2019-05-22T09:33:16.112Z,12.00
2019-05-22T09:35:45.768Z,12.10
2019-05-22T09:38:14.728Z,12.10
2019-05-22T09:40:43.533Z,11.90
2019-05-22T09:43:12.346Z,11.90
2019-05-22T09:45:41.368Z,11.90
2019-05-22T09:48:10.395Z,12.00
2019-05-22T09:50:39.634Z,12.00
2019-05-22T09:53:09.173Z,12.00
2019-05-22T09:55:38.748Z,11.90
2019-05-22T09:58:08.632Z,11.90
2019-05-22T10:00:38.330Z,11.90
2019-05-22T10:03:07.691Z,11.90
2019-05-22T10:05:36.967Z,11.90
2019-05-22T10:08:06.602Z,12.00
2019-05-22T10:10:35.800Z,12.00
2019-05-22T10:13:05.770Z,12.10
2019-05-22T10:15:35.296Z,12.10
2019-05-22T10:18:04.911Z,12.00
2019-05-22T10:20:34.036Z,11.90
2019-05-22T10:23:15.076Z,11.90
2019-05-22T10:25:35.077Z,11.90
2019-05-22T10:28:06.010Z,11.90
2019-05-22T10:30:35.476Z,11.90
2019-05-22T10:33:04.880Z,11.90
2019-05-22T10:35:35.580Z,11.90
2019-05-22T10:38:04.573Z,11.90
2019-05-22T10:40:33.578Z,11.90
2019-05-22T10:43:03.059Z,11.90
2019-05-22T10:45:32.513Z,11.90
2019-05-22T10:48:01.923Z,11.90
2019-05-22T10:50:30.842Z,12.00
2019-05-22T10:52:59.671Z,11.90
2019-05-22T10:55:28.988Z,12.00
2019-05-22T10:57:57.797Z,11.80
2019-05-22T11:00:26.963Z,11.90
2019-05-22T11:02:56.269Z,11.90
2019-05-22T11:05:25.526Z,11.90
2019-05-22T11:07:54.290Z,11.90
2019-05-22T11:10:25.277Z,11.90
2019-05-22T11:12:54.472Z,11.90
2019-05-22T11:15:24.285Z,11.90
2019-05-22T11:17:53.539Z,11.90
2019-05-22T11:20:23.845Z,11.90
2019-05-22T11:22:53.057Z,11.90
2019-05-22T11:25:22.296Z,11.80
2019-05-22T11:27:52.521Z,11.90
2019-05-22T11:30:23.424Z,11.80
2019-05-22T11:32:53.407Z,11.80
2019-05-22T11:35:22.884Z,11.80
2019-05-22T11:37:51.801Z,11.90
2019-05-22T11:40:21.540Z,11.90
2019-05-22T11:42:51.896Z,11.90
2019-05-22T11:45:22.857Z,11.90
2019-05-22T11:47:53.563Z,11.90
2019-05-22T11:50:23.482Z,11.90
2019-05-22T11:52:52.709Z,12.00
2019-05-22T11:55:22.135Z,12.10
2019-05-22T11:57:51.677Z,12.10
2019-05-22T12:00:21.271Z,12.20
2019-05-22T12:02:50.359Z,12.30
2019-05-22T12:05:19.865Z,12.20
2019-05-22T12:07:49.061Z,12.30
2019-05-22T12:10:20.526Z,12.30
2019-05-22T12:12:50.923Z,12.30
2019-05-22T12:15:23.226Z,12.30
2019-05-22T12:17:53.458Z,12.30
2019-05-22T12:20:24.357Z,12.40
2019-05-22T12:22:53.380Z,12.40
2019-05-22T12:25:22.764Z,12.40
2019-05-22T12:27:51.898Z,12.30
2019-05-22T12:30:21.403Z,12.30
2019-05-22T12:32:50.452Z,12.30
2019-05-22T12:35:19.880Z,12.30
2019-05-22T12:37:49.093Z,12.30
2019-05-22T12:40:20.128Z,12.20
2019-05-22T12:42:49.730Z,12.30
2019-05-22T12:45:25.822Z,12.30
2019-05-22T12:47:54.930Z,12.30
2019-05-22T12:50:27.755Z,12.30
2019-05-22T12:52:56.844Z,12.30
2019-05-22T12:55:25.968Z,12.30
2019-05-22T12:57:55.543Z,12.20
2019-05-22T13:00:28.766Z,12.20
2019-05-22T13:02:59.851Z,12.20
2019-05-22T13:05:29.035Z,12.20
2019-05-22T13:07:58.391Z,12.20
2019-05-22T13:10:28.253Z,12.20
2019-05-22T13:12:57.370Z,12.30
2019-05-22T13:15:27.840Z,12.30
2019-05-22T13:17:59.305Z,12.30
2019-05-22T13:20:41.829Z,12.30
2019-05-22T13:23:03.383Z,12.30
2019-05-22T13:25:36.272Z,12.30
2019-05-22T13:28:07.194Z,12.30
2019-05-22T13:30:37.711Z,12.30
2019-05-22T13:33:08.421Z,12.20
2019-05-22T13:35:37.507Z,12.20
2019-05-22T13:38:06.830Z,12.20
2019-05-22T13:40:36.512Z,12.10
2019-05-22T13:43:05.698Z,12.10
2019-05-22T13:45:34.843Z,12.10
2019-05-22T13:48:04.045Z,12.20
2019-05-22T13:50:33.699Z,12.20
2019-05-22T13:53:04.699Z,12.20
2019-05-22T13:55:33.788Z,12.10
2019-05-22T13:58:03.809Z,12.10
2019-05-22T14:00:33.044Z,12.00
2019-05-22T14:03:01.891Z,12.00
2019-05-22T14:05:33.069Z,12.00
2019-05-22T14:08:01.951Z,11.90
2019-05-22T14:10:33.670Z,12.00
2019-05-22T14:13:02.542Z,12.00
2019-05-22T14:15:48.295Z,11.90
2019-05-22T14:18:02.752Z,11.90
2019-05-22T14:20:32.018Z,12.00
2019-05-22T14:23:01.131Z,11.90
2019-05-22T14:25:32.052Z,11.90
2019-05-22T14:28:01.143Z,11.90
2019-05-22T14:30:30.751Z,11.90
2019-05-22T14:33:04.280Z,11.80
2019-05-22T14:35:47.802Z,11.80
2019-05-22T14:38:06.156Z,11.90
2019-05-22T14:40:37.238Z,11.90
2019-05-22T14:43:06.224Z,11.90
2019-05-22T14:45:35.438Z,11.80
2019-05-22T14:48:04.579Z,11.80
2019-05-22T14:50:33.683Z,11.80
2019-05-22T14:53:02.989Z,11.80
2019-05-22T14:55:34.712Z,11.80
2019-05-22T14:58:05.894Z,11.80
2019-05-22T15:00:37.684Z,11.80
2019-05-22T15:03:07.004Z,11.80
2019-05-22T15:05:36.143Z,11.70
2019-05-22T15:08:05.907Z,11.70
2019-05-22T15:10:35.863Z,11.80
2019-05-22T15:13:05.492Z,11.70
2019-05-22T15:15:35.273Z,11.70
2019-05-22T15:18:04.827Z,11.70
2019-05-22T15:20:37.255Z,11.70
2019-05-22T15:23:07.401Z,11.70
2019-05-22T15:25:36.837Z,11.70
2019-05-22T15:28:06.307Z,11.70
2019-05-22T15:30:35.529Z,11.70
2019-05-22T15:33:04.865Z,11.70
2019-05-22T15:35:34.624Z,11.70
2019-05-22T15:38:04.434Z,11.70
2019-05-22T15:40:34.706Z,11.80
2019-05-22T15:43:05.857Z,11.80
2019-05-22T15:45:36.169Z,11.80
2019-05-22T15:48:08.088Z,11.80
2019-05-22T15:50:38.894Z,11.70
2019-05-22T15:53:15.027Z,11.70
2019-05-22T15:55:44.142Z,11.80
2019-05-22T15:58:15.303Z,11.70
2019-05-22T16:00:47.372Z,11.70
2019-05-22T16:03:20.961Z,11.60
2019-05-22T16:05:52.195Z,11.60
2019-05-22T16:08:21.572Z,11.60
2019-05-22T16:10:52.286Z,11.60
2019-05-22T16:13:24.375Z,11.60
2019-05-22T16:15:55.710Z,11.50
2019-05-22T16:18:28.337Z,11.60
2019-05-22T16:20:59.903Z,11.60
2019-05-22T16:23:31.672Z,11.60
2019-05-22T16:26:03.566Z,11.60
2019-05-22T16:28:35.989Z,11.60
2019-05-22T16:31:06.987Z,11.50
2019-05-22T16:33:37.037Z,11.60
2019-05-22T16:36:06.516Z,11.50
2019-05-22T16:38:37.346Z,11.50
2019-05-22T16:41:08.285Z,11.50
2019-05-22T16:43:48.918Z,11.50
2019-05-22T16:46:10.393Z,11.50
2019-05-22T16:48:41.092Z,11.50
2019-05-22T16:51:11.644Z,11.50
2019-05-22T16:53:40.965Z,11.50
2019-05-22T16:56:10.437Z,11.50
2019-05-22T16:58:39.319Z,11.60
2019-05-22T17:01:10.978Z,11.50
2019-05-22T17:03:40.057Z,11.50
2019-05-22T17:06:09.121Z,11.50
2019-05-22T17:08:38.401Z,11.50
2019-05-22T17:11:07.900Z,11.50
2019-05-22T17:13:36.788Z,11.50
2019-05-22T17:16:08.579Z,11.50
2019-05-22T17:18:47.500Z,11.40
2019-05-22T17:21:08.727Z,11.30
2019-05-22T17:23:37.992Z,11.30
2019-05-22T17:26:07.791Z,11.30
2019-05-22T17:28:36.795Z,11.30
2019-05-22T17:31:06.179Z,11.30
2019-05-22T17:33:35.203Z,11.20
2019-05-22T17:36:05.742Z,11.20
2019-05-22T17:38:35.490Z,11.20
2019-05-22T17:41:04.854Z,11.20
2019-05-22T17:43:34.095Z,11.20
2019-05-22T17:46:05.515Z,11.20
2019-05-22T17:48:34.927Z,11.20
2019-05-22T17:51:04.370Z,11.20
2019-05-22T17:53:33.780Z,11.30
2019-05-22T17:56:02.563Z,11.30
2019-05-22T17:58:31.659Z,11.30
2019-05-22T18:01:02.062Z,11.30
2019-05-22T18:03:31.762Z,11.30
2019-05-22T18:06:10.981Z,11.30
2019-05-22T18:08:40.432Z,11.30
2019-05-22T18:11:09.813Z,11.30
2019-05-22T18:13:53.873Z,11.30
2019-05-22T18:16:23.288Z,11.30
2019-05-22T18:18:52.284Z,11.20
2019-05-22T18:21:21.292Z,11.20
2019-05-22T18:23:50.288Z,11.20
2019-05-22T18:26:19.440Z,11.30
2019-05-22T18:28:48.570Z,11.30
2019-05-22T18:31:17.595Z,11.20
2019-05-22T18:33:46.561Z,11.20
2019-05-22T18:36:15.771Z,11.20
2019-05-22T18:38:44.862Z,11.20
2019-05-22T18:41:14.213Z,11.20
2019-05-22T18:43:43.905Z,11.20
2019-05-22T18:46:13.660Z,11.20
2019-05-22T18:48:42.987Z,11.20
2019-05-22T18:51:12.168Z,11.20
2019-05-22T18:53:41.182Z,11.20
2019-05-22T18:56:11.075Z,11.30
2019-05-22T18:58:40.474Z,11.20
2019-05-22T19:01:09.330Z,11.30
2019-05-22T19:03:38.947Z,11.30
2019-05-22T19:06:08.157Z,11.20
2019-05-22T19:08:37.081Z,11.20
2019-05-22T19:11:05.954Z,11.20
2019-05-22T19:13:35.501Z,11.20
2019-05-22T19:16:04.644Z,11.30
2019-05-22T19:18:33.532Z,11.20
2019-05-22T19:21:02.990Z,11.30
2019-05-22T19:23:32.108Z,11.30
2019-05-22T19:26:05.022Z,11.20
2019-05-22T19:28:43.691Z,11.20
2019-05-22T19:31:04.013Z,11.20
2019-05-22T19:33:33.517Z,11.20
2019-05-22T19:36:02.872Z,11.20
2019-05-22T19:38:32.051Z,11.20
2019-05-22T19:41:01.230Z,11.20
2019-05-22T19:43:30.320Z,11.30
2019-05-22T19:45:59.500Z,11.20
2019-05-22T19:48:28.687Z,11.20
2019-05-22T19:50:57.803Z,11.30
2019-05-22T19:53:28.239Z,11.30
2019-05-22T19:55:57.352Z,11.30
2019-05-22T19:58:26.678Z,11.20
2019-05-22T20:00:55.656Z,11.30
2019-05-22T20:03:25.314Z,11.30
2019-05-22T20:05:55.147Z,11.30
2019-05-22T20:08:24.088Z,11.30
2019-05-22T20:10:53.339Z,11.30
2019-05-22T20:13:23.750Z,11.30
2019-05-22T20:15:53.562Z,11.30
2019-05-22T20:18:22.568Z,11.20
2019-05-22T20:20:51.987Z,11.30
2019-05-22T20:23:34.548Z,11.20
2019-05-22T20:25:52.326Z,11.20
2019-05-22T20:28:21.225Z,11.20
2019-05-22T20:30:50.488Z,11.20
2019-05-22T20:33:19.381Z,11.20
2019-05-22T20:35:48.418Z,11.20
2019-05-22T20:38:17.542Z,11.20
2019-05-22T20:40:46.829Z,11.20
2019-05-22T20:43:16.887Z,11.20
2019-05-22T20:45:46.533Z,11.20
2019-05-22T20:48:24.410Z,11.20
2019-05-22T20:50:55.337Z,11.20
2019-05-22T20:53:25.624Z,11.20
2019-05-22T20:55:54.970Z,11.20
2019-05-22T20:58:26.327Z,11.10
2019-05-22T21:00:55.341Z,11.10
2019-05-22T21:03:24.434Z,11.10
2019-05-22T21:05:54.922Z,11.10
2019-05-22T21:08:25.305Z,11.10
2019-05-22T21:10:56.407Z,11.10
2019-05-22T21:13:26.116Z,11.10
2019-05-22T21:15:56.037Z,11.10
2019-05-22T21:18:30.982Z,11.10
2019-05-22T21:21:00.305Z,11.10
2019-05-22T21:23:30.178Z,11.10
2019-05-22T21:25:59.361Z,11.00
2019-05-22T21:28:28.521Z,11.00
2019-05-22T21:30:58.074Z,11.00
2019-05-22T21:33:28.410Z,11.00
2019-05-22T21:35:58.684Z,11.00
2019-05-22T21:38:29.152Z,11.00
2019-05-22T21:40:58.824Z,11.00
2019-05-22T21:43:28.566Z,11.00
2019-05-22T21:45:58.480Z,11.00
2019-05-22T21:48:28.677Z,10.90
2019-05-22T21:50:58.061Z,10.90
2019-05-22T21:53:27.837Z,10.90
2019-05-22T21:56:04.908Z,10.80
2019-05-22T21:58:29.518Z,10.80
2019-05-22T22:01:26.249Z,10.90
2019-05-22T22:04:17.126Z,10.90
2019-05-22T22:06:46.827Z,10.90
2019-05-22T22:09:17.214Z,10.90
2019-05-22T22:11:46.293Z,10.90
2019-05-22T22:14:16.826Z,10.90
2019-05-22T22:16:48.105Z,10.80
2019-05-22T22:19:18.505Z,10.80
2019-05-22T22:21:48.490Z,10.90
2019-05-22T22:24:18.173Z,10.90
2019-05-22T22:26:48.415Z,10.80
2019-05-22T22:29:17.614Z,10.80
2019-05-22T22:31:47.186Z,10.90
2019-05-22T22:34:23.241Z,10.90
2019-05-22T22:36:52.981Z,10.90
2019-05-22T22:39:23.289Z,10.80
2019-05-22T22:41:53.174Z,10.80
2019-05-22T22:44:22.552Z,10.80
2019-05-22T22:47:01.319Z,10.80
2019-05-22T22:49:30.795Z,10.80
2019-05-22T22:52:01.086Z,10.80
2019-05-22T22:54:30.819Z,10.80
2019-05-22T22:57:00.439Z,10.80
2019-05-22T22:59:29.712Z,10.80
2019-05-22T23:02:00.522Z,10.80
2019-05-22T23:04:30.957Z,10.80
2019-05-22T23:07:05.780Z,10.80
2019-05-22T23:09:36.931Z,10.80
2019-05-22T23:12:07.946Z,10.80
2019-05-22T23:14:40.532Z,10.80
2019-05-22T23:17:11.142Z,10.80
2019-05-22T23:19:46.689Z,10.80
2019-05-22T23:22:19.420Z,10.70
2019-05-22T23:24:51.951Z,10.80
2019-05-22T23:27:23.352Z,10.80
2019-05-22T23:29:53.978Z,10.80
2019-05-22T23:32:24.008Z,10.80
2019-05-22T23:34:54.094Z,10.80
2019-05-22T23:37:24.005Z,10.80
2019-05-22T23:39:54.197Z,10.80
2019-05-22T23:42:34.713Z,10.80
2019-05-22T23:45:07.102Z,10.80
2019-05-22T23:47:43.744Z,10.80
2019-05-22T23:50:13.272Z,10.80
2019-05-22T23:52:43.021Z,10.80
2019-05-22T23:55:12.660Z,10.80
2019-05-22T23:57:41.522Z,10.80
